sensor_id;sensor_type;location;lat;lon;timestamp;P1;durP1;ratioP1;P2;durP2;ratioP2
3259;SDS011;68938;48.150;14.004;2023-07-20T00:02:01;5.97;;;5.07;;
3259;SDS011;68938;48.150;14.004;2023-07-20T00:04:30;5.77;;;5.30;;
3259;SDS011;68938;48.150;14.004;2023-07-20T00:06:58;5.93;;;5.43;;
3259;SDS011;68938;48.150;14.004;2023-07-20T00:09:25;6.40;;;5.60;;
3259;SDS011;68938;48.150;14.004;2023-07-20T00:11:54;6.40;;;5.43;;
3259;SDS011;68938;48.150;14.004;2023-07-20T00:14:21;6.10;;;5.60;;
3259;SDS011;68938;48.150;14.004;2023-07-20T00:16:51;5.03;;;4.63;;
3259;SDS011;68938;48.150;14.004;2023-07-20T00:19:19;6.60;;;6.00;;
3259;SDS011;68938;48.150;14.004;2023-07-20T00:21:46;6.13;;;5.33;;
3259;SDS011;68938;48.150;14.004;2023-07-20T00:24:13;6.10;;;5.60;;
3259;SDS011;68938;48.150;14.004;2023-07-20T00:26:40;6.60;;;5.13;;
3259;SDS011;68938;48.150;14.004;2023-07-20T00:29:07;5.93;;;5.13;;
3259;SDS011;68938;48.150;14.004;2023-07-20T00:31:35;5.07;;;4.50;;
3259;SDS011;68938;48.150;14.004;2023-07-20T00:34:04;6.10;;;5.60;;
3259;SDS011;68938;48.150;14.004;2023-07-20T00:36:32;5.93;;;5.37;;
3259;SDS011;68938;48.150;14.004;2023-07-20T00:38:59;5.60;;;5.10;;
3259;SDS011;68938;48.150;14.004;2023-07-20T00:41:27;5.80;;;5.20;;
3259;SDS011;68938;48.150;14.004;2023-07-20T00:43:56;4.80;;;4.40;;
3259;SDS011;68938;48.150;14.004;2023-07-20T00:46:23;6.33;;;5.13;;
3259;SDS011;68938;48.150;14.004;2023-07-20T00:48:53;6.70;;;5.60;;
3259;SDS011;68938;48.150;14.004;2023-07-20T00:51:21;5.47;;;5.07;;
3259;SDS011;68938;48.150;14.004;2023-07-20T00:53:53;4.97;;;4.57;;
3259;SDS011;68938;48.150;14.004;2023-07-20T00:56:20;6.40;;;5.80;;
3259;SDS011;68938;48.150;14.004;2023-07-20T00:58:49;5.10;;;4.70;;
3259;SDS011;68938;48.150;14.004;2023-07-20T01:01:17;5.13;;;4.73;;
3259;SDS011;68938;48.150;14.004;2023-07-20T01:03:47;6.30;;;4.43;;
3259;SDS011;68938;48.150;14.004;2023-07-20T01:08:59;5.00;;;4.60;;
3259;SDS011;68938;48.150;14.004;2023-07-20T01:14:49;5.57;;;4.63;;
3259;SDS011;68938;48.150;14.004;2023-07-20T01:17:17;5.77;;;5.20;;
3259;SDS011;68938;48.150;14.004;2023-07-20T01:19:44;4.80;;;4.50;;
3259;SDS011;68938;48.150;14.004;2023-07-20T01:22:28;5.43;;;5.03;;
3259;SDS011;68938;48.150;14.004;2023-07-20T01:31:32;5.53;;;5.03;;
3259;SDS011;68938;48.150;14.004;2023-07-20T01:34:03;4.90;;;4.50;;
3259;SDS011;68938;48.150;14.004;2023-07-20T01:36:35;5.20;;;4.80;;
3259;SDS011;68938;48.150;14.004;2023-07-20T01:39:05;5.20;;;4.80;;
3259;SDS011;68938;48.150;14.004;2023-07-20T01:41:33;5.20;;;4.80;;
3259;SDS011;68938;48.150;14.004;2023-07-20T01:44:01;7.73;;;5.37;;
3259;SDS011;68938;48.150;14.004;2023-07-20T01:46:30;5.63;;;5.13;;
3259;SDS011;68938;48.150;14.004;2023-07-20T01:49:00;5.13;;;4.70;;
3259;SDS011;68938;48.150;14.004;2023-07-20T01:51:27;6.40;;;5.90;;
3259;SDS011;68938;48.150;14.004;2023-07-20T01:53:54;5.70;;;5.03;;
3259;SDS011;68938;48.150;14.004;2023-07-20T01:56:21;6.33;;;5.73;;
3259;SDS011;68938;48.150;14.004;2023-07-20T01:58:50;6.27;;;5.67;;
3259;SDS011;68938;48.150;14.004;2023-07-20T02:01:17;7.07;;;6.00;;
3259;SDS011;68938;48.150;14.004;2023-07-20T02:03:46;6.47;;;5.80;;
3259;SDS011;68938;48.150;14.004;2023-07-20T02:06:13;6.37;;;5.83;;
3259;SDS011;68938;48.150;14.004;2023-07-20T02:08:41;6.63;;;6.00;;
3259;SDS011;68938;48.150;14.004;2023-07-20T02:11:09;5.60;;;5.20;;
3259;SDS011;68938;48.150;14.004;2023-07-20T02:13:36;6.33;;;5.73;;
3259;SDS011;68938;48.150;14.004;2023-07-20T02:16:03;6.20;;;5.80;;
3259;SDS011;68938;48.150;14.004;2023-07-20T02:18:31;6.77;;;6.17;;
3259;SDS011;68938;48.150;14.004;2023-07-20T02:20:58;6.27;;;5.77;;
3259;SDS011;68938;48.150;14.004;2023-07-20T02:23:25;6.40;;;5.73;;
3259;SDS011;68938;48.150;14.004;2023-07-20T02:25:52;6.20;;;5.60;;
3259;SDS011;68938;48.150;14.004;2023-07-20T02:28:20;6.27;;;5.67;;
3259;SDS011;68938;48.150;14.004;2023-07-20T02:30:48;5.90;;;5.40;;
3259;SDS011;68938;48.150;14.004;2023-07-20T02:33:15;6.60;;;6.00;;
3259;SDS011;68938;48.150;14.004;2023-07-20T02:35:43;6.67;;;6.17;;
3259;SDS011;68938;48.150;14.004;2023-07-20T02:38:10;6.10;;;5.57;;
3259;SDS011;68938;48.150;14.004;2023-07-20T02:40:37;5.60;;;5.00;;
3259;SDS011;68938;48.150;14.004;2023-07-20T02:43:04;7.73;;;6.17;;
3259;SDS011;68938;48.150;14.004;2023-07-20T02:45:31;7.60;;;6.67;;
3259;SDS011;68938;48.150;14.004;2023-07-20T02:47:58;6.47;;;5.87;;
3259;SDS011;68938;48.150;14.004;2023-07-20T02:50:27;6.40;;;5.90;;
3259;SDS011;68938;48.150;14.004;2023-07-20T02:52:54;6.03;;;5.53;;
3259;SDS011;68938;48.150;14.004;2023-07-20T02:55:21;6.50;;;5.90;;
3259;SDS011;68938;48.150;14.004;2023-07-20T02:57:49;6.50;;;5.50;;
3259;SDS011;68938;48.150;14.004;2023-07-20T03:00:16;6.20;;;5.60;;
3259;SDS011;68938;48.150;14.004;2023-07-20T03:02:46;6.17;;;5.67;;
3259;SDS011;68938;48.150;14.004;2023-07-20T03:05:15;9.80;;;5.57;;
3259;SDS011;68938;48.150;14.004;2023-07-20T03:07:42;5.93;;;5.33;;
3259;SDS011;68938;48.150;14.004;2023-07-20T03:10:10;6.87;;;5.83;;
3259;SDS011;68938;48.150;14.004;2023-07-20T03:12:37;6.33;;;5.83;;
3259;SDS011;68938;48.150;14.004;2023-07-20T03:15:05;5.80;;;5.30;;
3259;SDS011;68938;48.150;14.004;2023-07-20T03:17:34;5.40;;;5.00;;
3259;SDS011;68938;48.150;14.004;2023-07-20T03:20:01;5.87;;;5.47;;
3259;SDS011;68938;48.150;14.004;2023-07-20T03:22:28;6.37;;;5.87;;
3259;SDS011;68938;48.150;14.004;2023-07-20T03:24:57;5.60;;;5.20;;
3259;SDS011;68938;48.150;14.004;2023-07-20T03:27:24;6.20;;;5.63;;
3259;SDS011;68938;48.150;14.004;2023-07-20T03:29:52;6.63;;;5.87;;
3259;SDS011;68938;48.150;14.004;2023-07-20T03:32:21;8.73;;;6.50;;
3259;SDS011;68938;48.150;14.004;2023-07-20T03:34:48;6.43;;;5.93;;
3259;SDS011;68938;48.150;14.004;2023-07-20T03:37:17;6.70;;;6.10;;
3259;SDS011;68938;48.150;14.004;2023-07-20T03:39:45;7.80;;;5.67;;
3259;SDS011;68938;48.150;14.004;2023-07-20T03:42:12;5.70;;;5.10;;
3259;SDS011;68938;48.150;14.004;2023-07-20T03:44:39;5.27;;;4.80;;
3259;SDS011;68938;48.150;14.004;2023-07-20T03:47:06;6.60;;;5.93;;
3259;SDS011;68938;48.150;14.004;2023-07-20T03:49:36;7.70;;;6.23;;
3259;SDS011;68938;48.150;14.004;2023-07-20T03:52:03;6.33;;;5.83;;
3259;SDS011;68938;48.150;14.004;2023-07-20T03:54:31;6.67;;;5.73;;
3259;SDS011;68938;48.150;14.004;2023-07-20T03:56:59;11.97;;;6.17;;
3259;SDS011;68938;48.150;14.004;2023-07-20T03:59:26;6.57;;;5.70;;
3259;SDS011;68938;48.150;14.004;2023-07-20T04:01:55;8.33;;;6.33;;
3259;SDS011;68938;48.150;14.004;2023-07-20T04:04:22;5.80;;;5.20;;
3259;SDS011;68938;48.150;14.004;2023-07-20T04:06:49;6.63;;;5.50;;
3259;SDS011;68938;48.150;14.004;2023-07-20T04:09:16;6.73;;;6.00;;
3259;SDS011;68938;48.150;14.004;2023-07-20T04:11:43;7.60;;;5.87;;
3259;SDS011;68938;48.150;14.004;2023-07-20T04:14:12;5.83;;;5.30;;
3259;SDS011;68938;48.150;14.004;2023-07-20T04:16:39;5.80;;;5.30;;
3259;SDS011;68938;48.150;14.004;2023-07-20T04:19:07;5.33;;;4.83;;
3259;SDS011;68938;48.150;14.004;2023-07-20T04:21:39;6.23;;;5.60;;
3259;SDS011;68938;48.150;14.004;2023-07-20T04:24:08;5.70;;;5.27;;
3259;SDS011;68938;48.150;14.004;2023-07-20T04:26:36;6.50;;;5.90;;
3259;SDS011;68938;48.150;14.004;2023-07-20T04:29:04;6.10;;;5.50;;
3259;SDS011;68938;48.150;14.004;2023-07-20T04:31:31;6.20;;;5.60;;
3259;SDS011;68938;48.150;14.004;2023-07-20T04:33:58;5.47;;;4.97;;
3259;SDS011;68938;48.150;14.004;2023-07-20T04:36:27;6.27;;;5.67;;
3259;SDS011;68938;48.150;14.004;2023-07-20T04:38:54;7.03;;;4.80;;
3259;SDS011;68938;48.150;14.004;2023-07-20T04:41:21;9.03;;;5.77;;
3259;SDS011;68938;48.150;14.004;2023-07-20T04:43:48;7.97;;;5.63;;
3259;SDS011;68938;48.150;14.004;2023-07-20T04:46:16;5.43;;;4.93;;
3259;SDS011;68938;48.150;14.004;2023-07-20T04:48:43;6.23;;;5.47;;
3259;SDS011;68938;48.150;14.004;2023-07-20T04:51:11;7.17;;;6.37;;
3259;SDS011;68938;48.150;14.004;2023-07-20T04:53:38;5.50;;;5.10;;
3259;SDS011;68938;48.150;14.004;2023-07-20T04:56:06;6.80;;;5.10;;
3259;SDS011;68938;48.150;14.004;2023-07-20T04:58:34;5.90;;;5.43;;
3259;SDS011;68938;48.150;14.004;2023-07-20T05:01:02;5.77;;;5.27;;
3259;SDS011;68938;48.150;14.004;2023-07-20T05:03:31;7.37;;;5.50;;
3259;SDS011;68938;48.150;14.004;2023-07-20T05:05:59;5.70;;;5.27;;
3259;SDS011;68938;48.150;14.004;2023-07-20T05:08:26;8.73;;;5.63;;
3259;SDS011;68938;48.150;14.004;2023-07-20T05:10:54;5.00;;;4.70;;
3259;SDS011;68938;48.150;14.004;2023-07-20T05:13:21;5.93;;;5.40;;
3259;SDS011;68938;48.150;14.004;2023-07-20T05:15:50;7.90;;;5.60;;
3259;SDS011;68938;48.150;14.004;2023-07-20T05:18:19;5.73;;;5.20;;
3259;SDS011;68938;48.150;14.004;2023-07-20T05:20:46;5.53;;;5.00;;
3259;SDS011;68938;48.150;14.004;2023-07-20T05:23:15;5.33;;;4.70;;
3259;SDS011;68938;48.150;14.004;2023-07-20T05:25:44;6.33;;;4.47;;
3259;SDS011;68938;48.150;14.004;2023-07-20T05:28:12;4.17;;;3.73;;
3259;SDS011;68938;48.150;14.004;2023-07-20T05:30:39;5.47;;;4.97;;
3259;SDS011;68938;48.150;14.004;2023-07-20T05:33:07;5.70;;;4.73;;
3259;SDS011;68938;48.150;14.004;2023-07-20T05:35:34;6.80;;;4.60;;
3259;SDS011;68938;48.150;14.004;2023-07-20T05:38:03;6.77;;;5.10;;
3259;SDS011;68938;48.150;14.004;2023-07-20T05:40:31;6.40;;;5.27;;
3259;SDS011;68938;48.150;14.004;2023-07-20T05:42:58;5.30;;;4.80;;
3259;SDS011;68938;48.150;14.004;2023-07-20T05:45:28;5.30;;;4.70;;
3259;SDS011;68938;48.150;14.004;2023-07-20T05:47:56;4.30;;;3.90;;
3259;SDS011;68938;48.150;14.004;2023-07-20T05:50:24;4.87;;;4.47;;
3259;SDS011;68938;48.150;14.004;2023-07-20T05:52:52;5.40;;;4.40;;
3259;SDS011;68938;48.150;14.004;2023-07-20T05:55:20;5.37;;;4.97;;
3259;SDS011;68938;48.150;14.004;2023-07-20T05:57:47;4.83;;;4.30;;
3259;SDS011;68938;48.150;14.004;2023-07-20T06:00:15;4.83;;;4.47;;
3259;SDS011;68938;48.150;14.004;2023-07-20T06:02:43;6.27;;;4.47;;
3259;SDS011;68938;48.150;14.004;2023-07-20T06:05:10;5.70;;;4.70;;
3259;SDS011;68938;48.150;14.004;2023-07-20T06:07:37;4.63;;;4.23;;
3259;SDS011;68938;48.150;14.004;2023-07-20T06:10:05;6.17;;;4.60;;
3259;SDS011;68938;48.150;14.004;2023-07-20T06:12:34;4.97;;;4.50;;
3259;SDS011;68938;48.150;14.004;2023-07-20T06:15:04;4.83;;;4.43;;
3259;SDS011;68938;48.150;14.004;2023-07-20T06:17:33;5.93;;;5.43;;
3259;SDS011;68938;48.150;14.004;2023-07-20T06:20:00;5.97;;;4.40;;
3259;SDS011;68938;48.150;14.004;2023-07-20T06:22:27;6.13;;;5.07;;
3259;SDS011;68938;48.150;14.004;2023-07-20T06:24:56;6.10;;;5.03;;
3259;SDS011;68938;48.150;14.004;2023-07-20T06:27:24;25.17;;;6.00;;
3259;SDS011;68938;48.150;14.004;2023-07-20T06:29:52;4.87;;;4.47;;
3259;SDS011;68938;48.150;14.004;2023-07-20T06:32:19;4.50;;;4.13;;
3259;SDS011;68938;48.150;14.004;2023-07-20T06:34:46;7.07;;;4.63;;
3259;SDS011;68938;48.150;14.004;2023-07-20T06:37:13;5.47;;;4.20;;
3259;SDS011;68938;48.150;14.004;2023-07-20T06:39:40;4.80;;;4.40;;
3259;SDS011;68938;48.150;14.004;2023-07-20T06:42:11;9.80;;;4.40;;
3259;SDS011;68938;48.150;14.004;2023-07-20T06:44:39;4.73;;;4.33;;
3259;SDS011;68938;48.150;14.004;2023-07-20T06:47:08;4.90;;;4.40;;
3259;SDS011;68938;48.150;14.004;2023-07-20T06:49:35;4.43;;;4.07;;
3259;SDS011;68938;48.150;14.004;2023-07-20T06:52:03;6.30;;;4.67;;
3259;SDS011;68938;48.150;14.004;2023-07-20T06:54:30;5.80;;;4.27;;
3259;SDS011;68938;48.150;14.004;2023-07-20T06:57:01;5.87;;;4.47;;
3259;SDS011;68938;48.150;14.004;2023-07-20T06:59:43;4.10;;;3.80;;
3259;SDS011;68938;48.150;14.004;2023-07-20T07:02:11;4.50;;;4.10;;
3259;SDS011;68938;48.150;14.004;2023-07-20T07:04:40;4.40;;;4.00;;
3259;SDS011;68938;48.150;14.004;2023-07-20T07:07:09;4.93;;;4.63;;
3259;SDS011;68938;48.150;14.004;2023-07-20T07:09:36;5.57;;;4.87;;
3259;SDS011;68938;48.150;14.004;2023-07-20T07:12:04;4.43;;;4.13;;
3259;SDS011;68938;48.150;14.004;2023-07-20T07:14:32;4.70;;;4.27;;
3259;SDS011;68938;48.150;14.004;2023-07-20T07:16:59;4.40;;;4.00;;
3259;SDS011;68938;48.150;14.004;2023-07-20T07:19:30;4.40;;;4.10;;
3259;SDS011;68938;48.150;14.004;2023-07-20T07:21:58;4.17;;;3.70;;
3259;SDS011;68938;48.150;14.004;2023-07-20T07:24:26;4.23;;;3.57;;
3259;SDS011;68938;48.150;14.004;2023-07-20T07:26:55;6.03;;;4.27;;
3259;SDS011;68938;48.150;14.004;2023-07-20T07:29:22;5.37;;;3.40;;
3259;SDS011;68938;48.150;14.004;2023-07-20T07:31:49;3.70;;;3.33;;
3259;SDS011;68938;48.150;14.004;2023-07-20T07:34:18;3.50;;;3.17;;
3259;SDS011;68938;48.150;14.004;2023-07-20T07:36:47;3.87;;;2.33;;
3259;SDS011;68938;48.150;14.004;2023-07-20T07:39:14;6.27;;;3.30;;
3259;SDS011;68938;48.150;14.004;2023-07-20T07:42:00;6.63;;;3.87;;
3259;SDS011;68938;48.150;14.004;2023-07-20T07:44:28;4.33;;;3.67;;
3259;SDS011;68938;48.150;14.004;2023-07-20T07:46:55;9.17;;;4.30;;
3259;SDS011;68938;48.150;14.004;2023-07-20T07:49:22;4.90;;;3.73;;
3259;SDS011;68938;48.150;14.004;2023-07-20T07:51:52;4.60;;;4.20;;
3259;SDS011;68938;48.150;14.004;2023-07-20T07:54:19;4.60;;;4.20;;
3259;SDS011;68938;48.150;14.004;2023-07-20T07:56:46;3.67;;;3.37;;
3259;SDS011;68938;48.150;14.004;2023-07-20T07:59:14;3.63;;;3.30;;
3259;SDS011;68938;48.150;14.004;2023-07-20T08:01:43;4.70;;;4.40;;
3259;SDS011;68938;48.150;14.004;2023-07-20T08:04:10;6.03;;;3.53;;
3259;SDS011;68938;48.150;14.004;2023-07-20T08:06:37;4.10;;;3.13;;
3259;SDS011;68938;48.150;14.004;2023-07-20T08:09:04;3.73;;;3.43;;
3259;SDS011;68938;48.150;14.004;2023-07-20T08:11:32;3.60;;;3.40;;
3259;SDS011;68938;48.150;14.004;2023-07-20T08:14:01;4.63;;;3.80;;
3259;SDS011;68938;48.150;14.004;2023-07-20T08:16:28;5.00;;;3.17;;
3259;SDS011;68938;48.150;14.004;2023-07-20T08:18:56;3.63;;;3.13;;
3259;SDS011;68938;48.150;14.004;2023-07-20T08:21:23;2.53;;;2.33;;
3259;SDS011;68938;48.150;14.004;2023-07-20T08:23:51;3.53;;;2.93;;
3259;SDS011;68938;48.150;14.004;2023-07-20T08:26:19;4.40;;;2.97;;
3259;SDS011;68938;48.150;14.004;2023-07-20T08:28:48;3.03;;;2.80;;
3259;SDS011;68938;48.150;14.004;2023-07-20T08:31:15;3.13;;;2.80;;
3259;SDS011;68938;48.150;14.004;2023-07-20T08:33:43;3.17;;;2.80;;
3259;SDS011;68938;48.150;14.004;2023-07-20T08:36:10;3.80;;;3.40;;
3259;SDS011;68938;48.150;14.004;2023-07-20T08:38:38;3.93;;;3.60;;
3259;SDS011;68938;48.150;14.004;2023-07-20T08:41:05;3.70;;;2.90;;
3259;SDS011;68938;48.150;14.004;2023-07-20T08:43:33;3.20;;;3.00;;
3259;SDS011;68938;48.150;14.004;2023-07-20T08:46:00;4.03;;;2.47;;
3259;SDS011;68938;48.150;14.004;2023-07-20T08:48:28;2.90;;;2.70;;
3259;SDS011;68938;48.150;14.004;2023-07-20T08:50:57;2.73;;;2.40;;
3259;SDS011;68938;48.150;14.004;2023-07-20T08:53:29;3.07;;;2.87;;
3259;SDS011;68938;48.150;14.004;2023-07-20T08:56:00;2.90;;;2.70;;
3259;SDS011;68938;48.150;14.004;2023-07-20T08:58:29;3.97;;;3.30;;
3259;SDS011;68938;48.150;14.004;2023-07-20T09:00:57;7.13;;;3.60;;
3259;SDS011;68938;48.150;14.004;2023-07-20T09:03:28;3.63;;;2.53;;
3259;SDS011;68938;48.150;14.004;2023-07-20T09:05:55;2.70;;;2.50;;
3259;SDS011;68938;48.150;14.004;2023-07-20T09:08:23;3.00;;;2.80;;
3259;SDS011;68938;48.150;14.004;2023-07-20T09:10:51;3.40;;;2.80;;
3259;SDS011;68938;48.150;14.004;2023-07-20T09:13:19;4.40;;;2.67;;
3259;SDS011;68938;48.150;14.004;2023-07-20T09:15:47;2.60;;;2.37;;
3259;SDS011;68938;48.150;14.004;2023-07-20T09:18:24;2.23;;;2.03;;
3259;SDS011;68938;48.150;14.004;2023-07-20T09:21:03;3.63;;;2.87;;
3259;SDS011;68938;48.150;14.004;2023-07-20T09:23:33;3.73;;;2.80;;
3259;SDS011;68938;48.150;14.004;2023-07-20T09:26:12;2.40;;;2.30;;
3259;SDS011;68938;48.150;14.004;2023-07-20T09:28:43;2.90;;;2.70;;
3259;SDS011;68938;48.150;14.004;2023-07-20T09:31:20;5.03;;;2.67;;
3259;SDS011;68938;48.150;14.004;2023-07-20T09:33:50;2.50;;;2.40;;
3259;SDS011;68938;48.150;14.004;2023-07-20T09:36:23;4.20;;;3.03;;
3259;SDS011;68938;48.150;14.004;2023-07-20T09:39:11;2.27;;;1.90;;
3259;SDS011;68938;48.150;14.004;2023-07-20T09:41:40;2.70;;;2.50;;
3259;SDS011;68938;48.150;14.004;2023-07-20T09:44:12;3.97;;;3.03;;
3259;SDS011;68938;48.150;14.004;2023-07-20T09:46:48;3.67;;;2.30;;
3259;SDS011;68938;48.150;14.004;2023-07-20T09:49:21;2.30;;;2.13;;
3259;SDS011;68938;48.150;14.004;2023-07-20T09:51:51;2.73;;;2.53;;
3259;SDS011;68938;48.150;14.004;2023-07-20T09:54:21;2.43;;;2.27;;
3259;SDS011;68938;48.150;14.004;2023-07-20T09:56:50;2.50;;;2.20;;
3259;SDS011;68938;48.150;14.004;2023-07-20T09:59:20;3.00;;;2.80;;
3259;SDS011;68938;48.150;14.004;2023-07-20T10:01:47;3.33;;;2.47;;
3259;SDS011;68938;48.150;14.004;2023-07-20T10:04:16;3.90;;;2.83;;
3259;SDS011;68938;48.150;14.004;2023-07-20T10:06:47;4.10;;;2.07;;
3259;SDS011;68938;48.150;14.004;2023-07-20T10:09:19;3.00;;;2.80;;
3259;SDS011;68938;48.150;14.004;2023-07-20T10:11:49;3.13;;;2.20;;
3259;SDS011;68938;48.150;14.004;2023-07-20T10:14:38;2.70;;;2.50;;
3259;SDS011;68938;48.150;14.004;2023-07-20T10:17:13;2.80;;;2.23;;
3259;SDS011;68938;48.150;14.004;2023-07-20T10:19:44;2.27;;;2.07;;
3259;SDS011;68938;48.150;14.004;2023-07-20T10:22:26;3.00;;;1.90;;
3259;SDS011;68938;48.150;14.004;2023-07-20T10:25:01;2.10;;;1.97;;
3259;SDS011;68938;48.150;14.004;2023-07-20T10:27:29;2.50;;;1.87;;
3259;SDS011;68938;48.150;14.004;2023-07-20T10:29:57;1.73;;;1.63;;
3259;SDS011;68938;48.150;14.004;2023-07-20T10:32:25;3.00;;;1.93;;
3259;SDS011;68938;48.150;14.004;2023-07-20T10:34:53;2.53;;;2.17;;
3259;SDS011;68938;48.150;14.004;2023-07-20T10:40:32;1.77;;;1.67;;
3259;SDS011;68938;48.150;14.004;2023-07-20T10:43:01;2.07;;;1.77;;
3259;SDS011;68938;48.150;14.004;2023-07-20T10:45:34;1.83;;;1.73;;
3259;SDS011;68938;48.150;14.004;2023-07-20T10:48:21;4.80;;;1.90;;
3259;SDS011;68938;48.150;14.004;2023-07-20T10:53:40;4.67;;;2.50;;
3259;SDS011;68938;48.150;14.004;2023-07-20T10:56:14;2.20;;;2.10;;
3259;SDS011;68938;48.150;14.004;2023-07-20T10:58:47;2.60;;;2.40;;
3259;SDS011;68938;48.150;14.004;2023-07-20T11:01:16;2.20;;;2.07;;
3259;SDS011;68938;48.150;14.004;2023-07-20T11:03:48;2.03;;;1.93;;
3259;SDS011;68938;48.150;14.004;2023-07-20T11:08:55;2.23;;;2.03;;
3259;SDS011;68938;48.150;14.004;2023-07-20T11:11:38;2.37;;;2.07;;
3259;SDS011;68938;48.150;14.004;2023-07-20T11:14:22;2.63;;;2.50;;
3259;SDS011;68938;48.150;14.004;2023-07-20T11:16:52;1.97;;;1.87;;
3259;SDS011;68938;48.150;14.004;2023-07-20T11:19:21;2.60;;;2.40;;
3259;SDS011;68938;48.150;14.004;2023-07-20T11:21:54;2.40;;;2.20;;
3259;SDS011;68938;48.150;14.004;2023-07-20T11:24:29;2.67;;;2.47;;
3259;SDS011;68938;48.150;14.004;2023-07-20T11:26:58;2.50;;;2.13;;
3259;SDS011;68938;48.150;14.004;2023-07-20T11:29:25;2.40;;;2.30;;
3259;SDS011;68938;48.150;14.004;2023-07-20T11:31:56;2.10;;;2.00;;
3259;SDS011;68938;48.150;14.004;2023-07-20T11:34:24;2.23;;;2.13;;
3259;SDS011;68938;48.150;14.004;2023-07-20T11:36:51;3.67;;;2.20;;
3259;SDS011;68938;48.150;14.004;2023-07-20T11:39:23;3.63;;;2.20;;
3259;SDS011;68938;48.150;14.004;2023-07-20T11:41:59;2.47;;;2.20;;
3259;SDS011;68938;48.150;14.004;2023-07-20T11:44:27;2.40;;;2.03;;
3259;SDS011;68938;48.150;14.004;2023-07-20T11:47:03;5.43;;;2.70;;
3259;SDS011;68938;48.150;14.004;2023-07-20T11:49:35;4.27;;;2.23;;
3259;SDS011;68938;48.150;14.004;2023-07-20T11:52:09;1.73;;;1.60;;
3259;SDS011;68938;48.150;14.004;2023-07-20T11:54:40;2.20;;;2.10;;
3259;SDS011;68938;48.150;14.004;2023-07-20T11:57:18;2.13;;;1.90;;
3259;SDS011;68938;48.150;14.004;2023-07-20T11:59:56;2.40;;;2.20;;
3259;SDS011;68938;48.150;14.004;2023-07-20T12:02:29;2.70;;;2.50;;
3259;SDS011;68938;48.150;14.004;2023-07-20T12:04:57;4.30;;;2.40;;
3259;SDS011;68938;48.150;14.004;2023-07-20T12:07:28;4.20;;;2.00;;
3259;SDS011;68938;48.150;14.004;2023-07-20T12:10:05;2.03;;;1.90;;
3259;SDS011;68938;48.150;14.004;2023-07-20T12:12:34;2.13;;;1.90;;
3259;SDS011;68938;48.150;14.004;2023-07-20T12:17:55;2.10;;;1.90;;
3259;SDS011;68938;48.150;14.004;2023-07-20T12:20:28;2.20;;;2.10;;
3259;SDS011;68938;48.150;14.004;2023-07-20T12:23:04;2.47;;;2.27;;
3259;SDS011;68938;48.150;14.004;2023-07-20T12:28:13;1.87;;;1.77;;
3259;SDS011;68938;48.150;14.004;2023-07-20T12:30:43;2.93;;;2.20;;
3259;SDS011;68938;48.150;14.004;2023-07-20T12:33:12;2.70;;;1.97;;
3259;SDS011;68938;48.150;14.004;2023-07-20T12:35:40;6.50;;;2.67;;
3259;SDS011;68938;48.150;14.004;2023-07-20T12:38:07;2.30;;;2.10;;
3259;SDS011;68938;48.150;14.004;2023-07-20T12:40:35;2.33;;;1.93;;
3259;SDS011;68938;48.150;14.004;2023-07-20T12:43:02;2.07;;;1.93;;
3259;SDS011;68938;48.150;14.004;2023-07-20T12:45:31;3.13;;;2.50;;
3259;SDS011;68938;48.150;14.004;2023-07-20T12:47:58;2.87;;;1.93;;
3259;SDS011;68938;48.150;14.004;2023-07-20T12:50:26;2.63;;;2.43;;
3259;SDS011;68938;48.150;14.004;2023-07-20T12:52:55;2.63;;;1.97;;
3259;SDS011;68938;48.150;14.004;2023-07-20T12:55:22;2.83;;;2.10;;
3259;SDS011;68938;48.150;14.004;2023-07-20T12:57:51;1.90;;;1.80;;
3259;SDS011;68938;48.150;14.004;2023-07-20T13:00:18;2.20;;;2.00;;
3259;SDS011;68938;48.150;14.004;2023-07-20T13:02:45;2.00;;;1.90;;
3259;SDS011;68938;48.150;14.004;2023-07-20T13:05:14;2.50;;;2.30;;
3259;SDS011;68938;48.150;14.004;2023-07-20T13:07:41;2.40;;;2.20;;
3259;SDS011;68938;48.150;14.004;2023-07-20T13:10:11;2.80;;;2.43;;
3259;SDS011;68938;48.150;14.004;2023-07-20T13:12:40;2.40;;;2.30;;
3259;SDS011;68938;48.150;14.004;2023-07-20T13:15:09;1.83;;;1.73;;
3259;SDS011;68938;48.150;14.004;2023-07-20T13:17:38;2.17;;;2.07;;
3259;SDS011;68938;48.150;14.004;2023-07-20T13:20:07;3.33;;;2.03;;
3259;SDS011;68938;48.150;14.004;2023-07-20T13:22:40;4.10;;;2.93;;
3259;SDS011;68938;48.150;14.004;2023-07-20T13:25:07;2.23;;;2.00;;
3259;SDS011;68938;48.150;14.004;2023-07-20T13:27:35;1.93;;;1.73;;
3259;SDS011;68938;48.150;14.004;2023-07-20T13:30:04;2.17;;;1.90;;
3259;SDS011;68938;48.150;14.004;2023-07-20T13:32:35;3.27;;;2.20;;
3259;SDS011;68938;48.150;14.004;2023-07-20T13:35:03;2.80;;;2.23;;
3259;SDS011;68938;48.150;14.004;2023-07-20T13:37:30;2.53;;;2.33;;
3259;SDS011;68938;48.150;14.004;2023-07-20T13:39:58;4.73;;;2.20;;
3259;SDS011;68938;48.150;14.004;2023-07-20T13:42:25;2.97;;;2.17;;
3259;SDS011;68938;48.150;14.004;2023-07-20T13:44:53;2.40;;;1.80;;
3259;SDS011;68938;48.150;14.004;2023-07-20T13:47:22;5.57;;;2.67;;
3259;SDS011;68938;48.150;14.004;2023-07-20T13:49:49;6.00;;;2.30;;
3259;SDS011;68938;48.150;14.004;2023-07-20T13:52:30;2.37;;;2.17;;
3259;SDS011;68938;48.150;14.004;2023-07-20T13:54:59;2.00;;;1.90;;
3259;SDS011;68938;48.150;14.004;2023-07-20T13:57:31;2.80;;;1.90;;
3259;SDS011;68938;48.150;14.004;2023-07-20T14:00:01;2.37;;;2.17;;
3259;SDS011;68938;48.150;14.004;2023-07-20T14:02:32;3.43;;;2.47;;
3259;SDS011;68938;48.150;14.004;2023-07-20T14:05:01;1.93;;;1.83;;
3259;SDS011;68938;48.150;14.004;2023-07-20T14:07:32;2.00;;;1.80;;
3259;SDS011;68938;48.150;14.004;2023-07-20T14:09:59;2.60;;;2.00;;
3259;SDS011;68938;48.150;14.004;2023-07-20T14:12:30;3.27;;;2.03;;
3259;SDS011;68938;48.150;14.004;2023-07-20T14:14:57;2.20;;;2.10;;
3259;SDS011;68938;48.150;14.004;2023-07-20T14:17:27;2.30;;;1.40;;
3259;SDS011;68938;48.150;14.004;2023-07-20T14:19:54;2.23;;;1.80;;
3259;SDS011;68938;48.150;14.004;2023-07-20T14:22:21;2.23;;;2.00;;
3259;SDS011;68938;48.150;14.004;2023-07-20T14:24:48;2.90;;;2.27;;
3259;SDS011;68938;48.150;14.004;2023-07-20T14:27:15;2.53;;;2.33;;
3259;SDS011;68938;48.150;14.004;2023-07-20T14:29:42;1.80;;;1.70;;
3259;SDS011;68938;48.150;14.004;2023-07-20T14:32:09;1.93;;;1.73;;
3259;SDS011;68938;48.150;14.004;2023-07-20T14:34:37;2.20;;;2.10;;
3259;SDS011;68938;48.150;14.004;2023-07-20T14:37:05;1.90;;;1.80;;
3259;SDS011;68938;48.150;14.004;2023-07-20T14:39:34;1.77;;;1.67;;
3259;SDS011;68938;48.150;14.004;2023-07-20T14:42:01;2.43;;;2.23;;
3259;SDS011;68938;48.150;14.004;2023-07-20T14:44:30;1.80;;;1.70;;
3259;SDS011;68938;48.150;14.004;2023-07-20T14:47:00;3.23;;;1.77;;
3259;SDS011;68938;48.150;14.004;2023-07-20T14:49:39;2.50;;;2.30;;
3259;SDS011;68938;48.150;14.004;2023-07-20T14:52:07;2.50;;;1.60;;
3259;SDS011;68938;48.150;14.004;2023-07-20T14:54:37;2.23;;;2.13;;
3259;SDS011;68938;48.150;14.004;2023-07-20T14:57:05;2.37;;;2.17;;
3259;SDS011;68938;48.150;14.004;2023-07-20T14:59:34;2.00;;;1.90;;
3259;SDS011;68938;48.150;14.004;2023-07-20T15:02:01;2.00;;;1.90;;
3259;SDS011;68938;48.150;14.004;2023-07-20T15:04:28;3.73;;;2.00;;
3259;SDS011;68938;48.150;14.004;2023-07-20T15:07:00;2.13;;;1.90;;
3259;SDS011;68938;48.150;14.004;2023-07-20T15:09:27;1.80;;;1.70;;
3259;SDS011;68938;48.150;14.004;2023-07-20T15:11:57;2.40;;;2.30;;
3259;SDS011;68938;48.150;14.004;2023-07-20T15:14:25;3.00;;;2.10;;
3259;SDS011;68938;48.150;14.004;2023-07-20T15:16:52;2.17;;;2.00;;
3259;SDS011;68938;48.150;14.004;2023-07-20T15:19:22;4.30;;;2.13;;
3259;SDS011;68938;48.150;14.004;2023-07-20T15:21:49;1.90;;;1.80;;
3259;SDS011;68938;48.150;14.004;2023-07-20T15:24:17;4.63;;;2.37;;
3259;SDS011;68938;48.150;14.004;2023-07-20T15:26:44;3.07;;;2.17;;